Chie Maru No.10 — JD2376 — position and weather

sailwx.info

Track history (hours):
 
Tides and Currents Weather Stations Pressure Air Temp Water Temp Dewpoint Dewpoint Depression Visibility Wind Speed Wind Dir Waves Ship Positions

Chie Maru No.10

Last reported at 2017-Jan-15 00:23 UTC. Time now 2017-Jan-21 10:47 UTC.
Position N 35°09' E 139°44'.

Length 72 m; draft 4.9 m.

Type: Ship. MMSI: 431000147.

Date/timePositionNaut miles runAvg speedWind from/ knotsBaromVisibWave heightAir tempDewpointWater temp
2017-Jan-15 00:23N 35°09' E 139°44'911.0
2017-Jan-14 23:34N 35°18' E 139°44'5 4.9
2017-Jan-14 22:30N 35°23' E 139°44'0 0.0
2017-Jan-14 21:30N 35°23' E 139°44'0 0.0
2017-Jan-14 20:33N 35°23' E 139°44'0 0.0
2017-Jan-14 19:30N 35°23' E 139°44'0 0.0
2017-Jan-14 18:30N 35°23' E 139°44'0 0.1
2017-Jan-14 17:33N 35°23' E 139°44'0 0.0
2017-Jan-14 16:27N 35°23' E 139°44'0 0.1
2017-Jan-14 15:30N 35°23' E 139°44'0 0.0
2017-Jan-14 14:33N 35°23' E 139°44'0 0.1
2017-Jan-14 13:33N 35°23' E 139°44'0 0.0
2017-Jan-14 12:27N 35°23' E 139°44'0 0.0
2017-Jan-14 11:33N 35°23' E 139°44'0 0.0
2017-Jan-14 10:33N 35°23' E 139°44'0 0.0
2017-Jan-14 09:33N 35°23' E 139°44'0 0.0
2017-Jan-14 08:33N 35°23' E 139°44'0 0.0
2017-Jan-14 07:30N 35°23' E 139°44'0 0.1
2017-Jan-14 06:33N 35°23' E 139°44'0 0.0
2017-Jan-14 05:21N 35°23' E 139°44'0 0.0
2017-Jan-14 04:30N 35°23' E 139°44'0 0.0
2017-Jan-14 03:27N 35°23' E 139°44'0 0.0
2017-Jan-13 23:30N 35°23' E 139°44'0 0.0
2017-Jan-13 22:33N 35°23' E 139°44'0 0.0
2017-Jan-13 21:30N 35°23' E 139°44'0 0.1
2017-Jan-13 20:27N 35°23' E 139°44'0 0.1
2017-Jan-13 19:30N 35°23' E 139°44'0 0.0
2017-Jan-13 18:30N 35°23' E 139°44'0 0.1
2017-Jan-13 17:30N 35°23' E 139°44'0 0.0
2017-Jan-13 16:33N 35°23' E 139°44'0 0.0
2017-Jan-13 15:30N 35°23' E 139°44'0 0.1
2017-Jan-13 14:33N 35°23' E 139°44'0 0.0
2017-Jan-13 13:33N 35°23' E 139°44'0 0.0
2017-Jan-13 12:33N 35°23' E 139°44'0 0.0
2017-Jan-13 11:33N 35°23' E 139°44'0 0.0
2017-Jan-13 10:33N 35°23' E 139°44'0 0.0
2017-Jan-13 09:24N 35°23' E 139°44'0 0.1
2017-Jan-13 08:03N 35°23' E 139°44'0 0.0
2017-Jan-13 07:33N 35°23' E 139°44'0 0.0
2017-Jan-13 06:30N 35°23' E 139°44'0 0.0
2017-Jan-13 05:30N 35°23' E 139°44'0 0.0
2017-Jan-13 04:27N 35°23' E 139°44'0 0.0
2017-Jan-13 03:30N 35°23' E 139°44'0 0.0
2017-Jan-13 02:24N 35°23' E 139°44'0 0.1
2017-Jan-13 01:30N 35°23' E 139°44'0 0.0
2017-Jan-13 00:15N 35°23' E 139°44'0 0.0
2017-Jan-12 23:30N 35°23' E 139°44'0 0.0
2017-Jan-12 22:33N 35°23' E 139°44'0 0.0
2017-Jan-12 21:27N 35°23' E 139°44'0 0.0
2017-Jan-12 20:33N 35°23' E 139°44'0 0.0
2017-Jan-12 19:30N 35°23' E 139°44'0 0.0
2017-Jan-12 18:33N 35°23' E 139°44'0 0.0
2017-Jan-12 17:27N 35°23' E 139°44'0 0.0
2017-Jan-12 16:30N 35°23' E 139°44'0 0.0
2017-Jan-12 15:30N 35°23' E 139°44'0 0.0
2017-Jan-12 14:33N 35°23' E 139°44'3 3.5
2017-Jan-12 13:33N 35°20' E 139°43'12 9.1
2017-Jan-12 12:16N 35°08' E 139°45'2 2.8
2017-Jan-12 11:32N 35°10' E 139°45'14 0.8
2017-Jan-11 18:11N 35°24' E 139°46'911.9
2017-Jan-11 17:26N 35°15' E 139°47'1112.0
2017-Jan-11 16:33N 35°04' E 139°45'  
2017-Jan-07 08:04N 35°07' E 139°42'911.8
2017-Jan-07 07:16N 35°16' E 139°46'912.0
2017-Jan-07 06:33N 35°23' E 139°40'1 1.2
2017-Jan-07 05:33N 35°24' E 139°40'0 0.0
2017-Jan-07 04:33N 35°24' E 139°40'0 0.0
2017-Jan-07 03:33N 35°24' E 139°40'0 0.0
2017-Jan-07 02:33N 35°24' E 139°40'6 5.8
2017-Jan-07 01:34N 35°26' E 139°46'1111.4
2017-Jan-07 00:33N 35°29' E 139°60'1 1.2
2017-Jan-06 23:26N 35°28' E 140°01'0 0.0
2017-Jan-06 22:30N 35°28' E 140°01'3 2.8
2017-Jan-06 21:28N 35°30' E 139°58'1 0.9
2017-Jan-06 20:27N 35°31' E 139°58'0 0.1
2017-Jan-06 19:33N 35°31' E 139°58'0 0.3
2017-Jan-06 18:33N 35°31' E 139°58'1211.7
2017-Jan-06 17:33N 35°24' E 139°47'1711.4
2017-Jan-06 16:06N 35°08' E 139°46'  
Track history (hours):
 
Tides and Currents Weather Stations Pressure Air Temp Water Temp Dewpoint Dewpoint Depression Visibility Wind Speed Wind Dir Waves Ship Positions

Chie Maru No.10

Last reported at 2017-Jan-15 00:23 UTC. Time now 2017-Jan-21 10:47 UTC.
Position N 35°09' E 139°44'.

Length 72 m; draft 4.9 m.

Type: Ship. MMSI: 431000147.

Date/timePositionNaut miles runAvg speedWind from/ knotsBaromVisibWave heightAir tempDewpointWater temp
2017-Jan-15 00:23N 35°09' E 139°44'911.0
2017-Jan-14 23:34N 35°18' E 139°44'5 4.9
2017-Jan-14 22:30N 35°23' E 139°44'0 0.0
2017-Jan-14 21:30N 35°23' E 139°44'0 0.0
2017-Jan-14 20:33N 35°23' E 139°44'0 0.0
2017-Jan-14 19:30N 35°23' E 139°44'0 0.0
2017-Jan-14 18:30N 35°23' E 139°44'0 0.1
2017-Jan-14 17:33N 35°23' E 139°44'0 0.0
2017-Jan-14 16:27N 35°23' E 139°44'0 0.1
2017-Jan-14 15:30N 35°23' E 139°44'0 0.0
2017-Jan-14 14:33N 35°23' E 139°44'0 0.1
2017-Jan-14 13:33N 35°23' E 139°44'0 0.0
2017-Jan-14 12:27N 35°23' E 139°44'0 0.0
2017-Jan-14 11:33N 35°23' E 139°44'0 0.0
2017-Jan-14 10:33N 35°23' E 139°44'0 0.0
2017-Jan-14 09:33N 35°23' E 139°44'0 0.0
2017-Jan-14 08:33N 35°23' E 139°44'0 0.0
2017-Jan-14 07:30N 35°23' E 139°44'0 0.1
2017-Jan-14 06:33N 35°23' E 139°44'0 0.0
2017-Jan-14 05:21N 35°23' E 139°44'0 0.0
2017-Jan-14 04:30N 35°23' E 139°44'0 0.0
2017-Jan-14 03:27N 35°23' E 139°44'0 0.0
2017-Jan-13 23:30N 35°23' E 139°44'0 0.0
2017-Jan-13 22:33N 35°23' E 139°44'0 0.0
2017-Jan-13 21:30N 35°23' E 139°44'0 0.1
2017-Jan-13 20:27N 35°23' E 139°44'0 0.1
2017-Jan-13 19:30N 35°23' E 139°44'0 0.0
2017-Jan-13 18:30N 35°23' E 139°44'0 0.1
2017-Jan-13 17:30N 35°23' E 139°44'0 0.0
2017-Jan-13 16:33N 35°23' E 139°44'0 0.0
2017-Jan-13 15:30N 35°23' E 139°44'0 0.1
2017-Jan-13 14:33N 35°23' E 139°44'0 0.0
2017-Jan-13 13:33N 35°23' E 139°44'0 0.0
2017-Jan-13 12:33N 35°23' E 139°44'0 0.0
2017-Jan-13 11:33N 35°23' E 139°44'0 0.0
2017-Jan-13 10:33N 35°23' E 139°44'0 0.0
2017-Jan-13 09:24N 35°23' E 139°44'0 0.1
2017-Jan-13 08:03N 35°23' E 139°44'0 0.0
2017-Jan-13 07:33N 35°23' E 139°44'0 0.0
2017-Jan-13 06:30N 35°23' E 139°44'0 0.0
2017-Jan-13 05:30N 35°23' E 139°44'0 0.0
2017-Jan-13 04:27N 35°23' E 139°44'0 0.0
2017-Jan-13 03:30N 35°23' E 139°44'0 0.0
2017-Jan-13 02:24N 35°23' E 139°44'0 0.1
2017-Jan-13 01:30N 35°23' E 139°44'0 0.0
2017-Jan-13 00:15N 35°23' E 139°44'0 0.0
2017-Jan-12 23:30N 35°23' E 139°44'0 0.0
2017-Jan-12 22:33N 35°23' E 139°44'0 0.0
2017-Jan-12 21:27N 35°23' E 139°44'0 0.0
2017-Jan-12 20:33N 35°23' E 139°44'0 0.0
2017-Jan-12 19:30N 35°23' E 139°44'0 0.0
2017-Jan-12 18:33N 35°23' E 139°44'0 0.0
2017-Jan-12 17:27N 35°23' E 139°44'0 0.0
2017-Jan-12 16:30N 35°23' E 139°44'0 0.0
2017-Jan-12 15:30N 35°23' E 139°44'0 0.0
2017-Jan-12 14:33N 35°23' E 139°44'3 3.5
2017-Jan-12 13:33N 35°20' E 139°43'12 9.1
2017-Jan-12 12:16N 35°08' E 139°45'2 2.8
2017-Jan-12 11:32N 35°10' E 139°45'14 0.8
2017-Jan-11 18:11N 35°24' E 139°46'911.9
2017-Jan-11 17:26N 35°15' E 139°47'1112.0
2017-Jan-11 16:33N 35°04' E 139°45'  
2017-Jan-07 08:04N 35°07' E 139°42'911.8
2017-Jan-07 07:16N 35°16' E 139°46'912.0
2017-Jan-07 06:33N 35°23' E 139°40'1 1.2
2017-Jan-07 05:33N 35°24' E 139°40'0 0.0
2017-Jan-07 04:33N 35°24' E 139°40'0 0.0
2017-Jan-07 03:33N 35°24' E 139°40'0 0.0
2017-Jan-07 02:33N 35°24' E 139°40'6 5.8
2017-Jan-07 01:34N 35°26' E 139°46'1111.4
2017-Jan-07 00:33N 35°29' E 139°60'1 1.2
2017-Jan-06 23:26N 35°28' E 140°01'0 0.0
2017-Jan-06 22:30N 35°28' E 140°01'3 2.8
2017-Jan-06 21:28N 35°30' E 139°58'1 0.9
2017-Jan-06 20:27N 35°31' E 139°58'0 0.1
2017-Jan-06 19:33N 35°31' E 139°58'0 0.3
2017-Jan-06 18:33N 35°31' E 139°58'1211.7
2017-Jan-06 17:33N 35°24' E 139°47'1711.4
2017-Jan-06 16:06N 35°08' E 139°46'  

Dump ship's entire track history